Time;durP1;ratioP1;P1;durP2;ratioP2;P2;SDS_P1;SDS_P2;PMS_P1;PMS_P2;Temp;Humidity;BMP_temperature;BMP_pressure;BME280_temperature;BME280_humidity;BME280_pressure;Samples;Min_cycle;Max_cycle;Signal;HPM_P1;HPM_P2
2023/06/25 00:00:58;;;;;;;5.2;4.5;;;;;;;14.67;80.57031;942.8431;;;;
2023/06/25 00:03:23;;;;;;;5.8;4.2;;;;;;;14.36;82.01074;942.8184;;;;
2023/06/25 00:05:51;;;;;;;5.1;4.5;;;;;;;14.23;82.83984;942.8061;;;;
2023/06/25 00:08:16;;;;;;;6;4.8;;;;;;;14.24;82.83105;942.7668;;;;
2023/06/25 00:10:41;;;;;;;5;4.5;;;;;;;14.4;81.97363;942.7449;;;;
2023/06/25 00:13:06;;;;;;;5.1;4.6;;;;;;;14.34;82.16895;942.6293;;;;
2023/06/25 00:15:34;;;;;;;6.3;4.6;;;;;;;14.45;81.73047;942.6799;;;;
2023/06/25 00:17:59;;;;;;;5;4.5;;;;;;;14.55;81.11328;942.5999;;;;
2023/06/25 00:20:25;;;;;;;5.5;4.1;;;;;;;14.61;80.7793;942.6399;;;;
2023/06/25 00:22:49;;;;;;;6.5;4.5;;;;;;;14.43;81.46191;942.6722;;;;
2023/06/25 00:25:19;;;;;;;5.5;4.2;;;;;;;14.57;80.9668;942.6078;;;;
2023/06/25 00:27:47;;;;;;;5.4;4.1;;;;;;;14.5;80.91113;942.5789;;;;
2023/06/25 00:30:12;;;;;;;5;4.1;;;;;;;14.54;80.92773;942.551;;;;
2023/06/25 00:32:39;;;;;;;5.4;4.9;;;;;;;14.44;81.37012;942.5316;;;;
2023/06/25 00:35:06;;;;;;;5;4.5;;;;;;;14.64;80.24219;942.4847;;;;
2023/06/25 00:37:29;;;;;;;4.9;4.2;;;;;;;14.69;80.33301;942.4391;;;;
2023/06/25 00:39:55;;;;;;;5.2;4.3;;;;;;;14.73;80.12207;942.4319;;;;
2023/06/25 00:42:19;;;;;;;5.6;4.4;;;;;;;14.68;80.09082;942.3228;;;;
2023/06/25 00:44:45;;;;;;;5.9;4.4;;;;;;;14.67;80.20313;942.4158;;;;
2023/06/25 00:47:12;;;;;;;5.4;4.5;;;;;;;14.67;80.03027;942.3469;;;;
2023/06/25 00:49:36;;;;;;;5.9;4.3;;;;;;;14.54;80.61621;942.361;;;;
2023/06/25 00:52:08;;;;;;;5.2;4.4;;;;;;;14.46;80.87891;942.3072;;;;
2023/06/25 00:54:28;;;;;;;5.3;4.6;;;;;;;14.58;80.41699;942.2856;;;;
2023/06/25 00:56:53;;;;;;;5.8;4.4;;;;;;;14.38;81.11719;942.3474;;;;
2023/06/25 00:59:18;;;;;;;6;4.5;;;;;;;14.45;80.83203;942.2856;;;;
2023/06/25 01:01:46;;;;;;;6;4.6;;;;;;;14.28;81.58301;942.3008;;;;
2023/06/25 01:04:13;;;;;;;4.9;4.2;;;;;;;14.17;82.08105;942.2819;;;;
2023/06/25 01:06:40;;;;;;;5.4;4.4;;;;;;;14.19;82.0498;942.2723;;;;
2023/06/25 01:09:06;;;;;;;6.1;4.4;;;;;;;14.22;81.70898;942.2445;;;;
2023/06/25 01:11:29;;;;;;;5;4.4;;;;;;;14.03;82.5127;942.2159;;;;
2023/06/25 01:13:54;;;;;;;8.2;5.3;;;;;;;13.98;82.5625;942.1898;;;;
2023/06/25 01:16:19;;;;;;;5.8;4.5;;;;;;;13.84;83.18164;942.2319;;;;
2023/06/25 01:18:44;;;;;;;4.6;4.2;;;;;;;13.92;82.89648;942.2112;;;;
2023/06/25 01:21:11;;;;;;;5.9;4.3;;;;;;;13.95;83.04102;942.1241;;;;
2023/06/25 01:23:36;;;;;;;6.7;4.7;;;;;;;13.79;83.44727;942.0865;;;;
2023/06/25 01:26:01;;;;;;;6.2;4.8;;;;;;;13.67;84.40039;942.0485;;;;
2023/06/25 01:28:26;;;;;;;6.9;4.8;;;;;;;13.76;84.13184;942.0848;;;;
2023/06/25 01:30:55;;;;;;;5.7;4.4;;;;;;;14;82.6582;942.0466;;;;
2023/06/25 01:33:20;;;;;;;5.1;4.6;;;;;;;13.87;83.50684;942.0255;;;;
2023/06/25 01:35:46;;;;;;;6.5;4.5;;;;;;;13.85;83.46875;942.0189;;;;
2023/06/25 01:38:12;;;;;;;6.2;4.3;;;;;;;13.87;83.26563;942.0422;;;;
2023/06/25 01:40:38;;;;;;;4.9;4.4;;;;;;;13.74;83.9541;941.9888;;;;
2023/06/25 01:43:04;;;;;;;6;4.7;;;;;;;13.81;83.83008;941.9633;;;;
2023/06/25 01:45:29;;;;;;;5.9;4.7;;;;;;;13.76;83.71777;941.9335;;;;
2023/06/25 01:47:54;;;;;;;5.7;4.6;;;;;;;13.57;84.83008;941.923;;;;
2023/06/25 01:50:20;;;;;;;5.8;4.9;;;;;;;13.52;85.09668;941.8188;;;;
2023/06/25 01:52:45;;;;;;;6.6;5.4;;;;;;;13.66;84.55957;941.8404;;;;
2023/06/25 01:55:14;;;;;;;8.7;4.8;;;;;;;13.57;84.79492;941.8286;;;;
2023/06/25 01:57:39;;;;;;;5.9;4.5;;;;;;;13.78;83.76758;941.8336;;;;
2023/06/25 02:00:06;;;;;;;6.1;5.1;;;;;;;13.92;83.50586;941.799;;;;
2023/06/25 02:02:32;;;;;;;4.8;4.3;;;;;;;14;82.73926;941.7358;;;;
2023/06/25 02:04:59;;;;;;;5.2;4.5;;;;;;;13.64;84.06152;941.7332;;;;
2023/06/25 02:07:24;;;;;;;5.8;4.3;;;;;;;13.4;85.22168;941.7188;;;;
2023/06/25 02:09:53;;;;;;;4.9;4.4;;;;;;;13.49;84.81445;941.717;;;;
2023/06/25 02:12:18;;;;;;;7;4.6;;;;;;;13.4;85.24414;941.6469;;;;
2023/06/25 02:15:23;;;;;;;4.9;4.3;;;;;;;13.31;85.65234;941.6417;;;;
2023/06/25 02:17:47;;;;;;;6.5;5;;;;;;;13.07;86.84668;941.5887;;;;
2023/06/25 02:20:14;;;;;;;5.7;4.6;;;;;;;13.08;86.75586;941.5833;;;;
2023/06/25 02:22:39;;;;;;;7.7;5.2;;;;;;;13.14;86.61719;941.5754;;;;
2023/06/25 02:25:04;;;;;;;5.2;4.7;;;;;;;13.05;86.99219;941.5208;;;;
2023/06/25 02:27:29;;;;;;;5.6;4.9;;;;;;;13.04;87;941.5575;;;;
2023/06/25 02:29:57;;;;;;;6.7;5;;;;;;;12.96;87.46582;941.4856;;;;
2023/06/25 02:32:22;;;;;;;5.8;4.8;;;;;;;13.02;87.43262;941.415;;;;
2023/06/25 02:34:49;;;;;;;6.6;5;;;;;;;13.2;86.78125;941.3938;;;;
2023/06/25 02:37:14;;;;;;;6;5;;;;;;;13.33;85.99023;941.4601;;;;
2023/06/25 02:39:41;;;;;;;5.8;5;;;;;;;13.38;85.43848;941.4092;;;;
2023/06/25 02:42:06;;;;;;;6;5;;;;;;;13.2;85.9082;941.4714;;;;
2023/06/25 02:44:31;;;;;;;5.3;4.4;;;;;;;13.1;86.71387;941.3867;;;;
2023/06/25 02:46:56;;;;;;;5.4;4.6;;;;;;;13.17;86.46387;941.4213;;;;
2023/06/25 02:49:23;;;;;;;6.6;5;;;;;;;13.36;85.7207;941.4019;;;;
2023/06/25 02:51:48;;;;;;;5;4.4;;;;;;;13.39;85.50684;941.3917;;;;
2023/06/25 02:54:15;;;;;;;5.5;4.5;;;;;;;13.41;85.09863;941.4405;;;;
2023/06/25 02:56:40;;;;;;;6.1;5.1;;;;;;;13.35;85.32813;941.4379;;;;
2023/06/25 02:59:06;;;;;;;5.9;4.6;;;;;;;13.22;85.91211;941.4606;;;;
2023/06/25 03:01:31;;;;;;;6.1;4.9;;;;;;;13.08;86.34277;941.4521;;;;
2023/06/25 03:03:58;;;;;;;6;5;;;;;;;13.08;86.51465;941.5297;;;;
2023/06/25 03:06:23;;;;;;;6.1;4.9;;;;;;;12.94;87.51953;941.5022;;;;
2023/06/25 03:08:50;;;;;;;5.8;4.7;;;;;;;12.87;87.62207;941.4562;;;;
2023/06/25 03:11:16;;;;;;;5.4;4.6;;;;;;;12.9;87.47754;941.4892;;;;
2023/06/25 03:13:40;;;;;;;6.5;5.2;;;;;;;12.92;87.5752;941.3911;;;;
2023/06/25 03:16:06;;;;;;;6.2;4.7;;;;;;;13.04;87.06836;941.3967;;;;
2023/06/25 03:18:31;;;;;;;6.7;4.9;;;;;;;13;86.77637;941.4034;;;;
2023/06/25 03:20:56;;;;;;;6.4;4.7;;;;;;;13.03;86.88477;941.4088;;;;
2023/06/25 03:23:21;;;;;;;7.1;4.9;;;;;;;12.95;87.10938;941.3856;;;;
2023/06/25 03:25:48;;;;;;;6;4.7;;;;;;;13.01;87.26953;941.3667;;;;
2023/06/25 03:28:13;;;;;;;6;5.1;;;;;;;13;87.21094;941.4138;;;;
2023/06/25 03:31:55;;;;;;;6.1;4.9;;;;;;;12.99;86.95605;941.4171;;;;
2023/06/25 03:34:20;;;;;;;5.4;4.6;;;;;;;12.83;88.04883;941.4385;;;;
2023/06/25 03:36:46;;;;;;;6.3;5.1;;;;;;;12.94;87.57715;941.4407;;;;
2023/06/25 03:39:11;;;;;;;6.4;4.8;;;;;;;13.04;86.83887;941.4175;;;;
2023/06/25 03:41:36;;;;;;;5.8;4.7;;;;;;;12.88;87.59863;941.4324;;;;
2023/06/25 03:44:03;;;;;;;6.2;5;;;;;;;13.02;87.05371;941.4294;;;;
2023/06/25 03:46:28;;;;;;;5.9;4.9;;;;;;;13;87.08398;941.3978;;;;
2023/06/25 03:48:55;;;;;;;5.6;4.6;;;;;;;12.82;87.55469;941.4448;;;;
2023/06/25 03:51:20;;;;;;;5.4;4.8;;;;;;;12.68;88.44434;941.4373;;;;
2023/06/25 03:53:45;;;;;;;6.8;4.7;;;;;;;12.65;88.63184;941.4267;;;;
2023/06/25 03:56:10;;;;;;;5.9;5;;;;;;;12.77;88.06055;941.4338;;;;
2023/06/25 03:58:37;;;;;;;6.5;4.8;;;;;;;12.89;87.3252;941.4252;;;;
2023/06/25 04:02:43;;;;;;;6.5;5.2;;;;;;;12.67;88.52051;941.3142;;;;
2023/06/25 04:05:16;;;;;;;5.7;4.6;;;;;;;12.58;88.98438;941.3373;;;;
2023/06/25 04:07:46;;;;;;;6.2;4.9;;;;;;;12.48;89.64063;941.347;;;;
2023/06/25 04:10:12;;;;;;;6.6;4.6;;;;;;;12.61;89.01465;941.3415;;;;
2023/06/25 04:12:36;;;;;;;5.5;4.7;;;;;;;12.72;89.12988;941.3889;;;;
2023/06/25 04:15:02;;;;;;;5.5;4.6;;;;;;;12.73;88.60254;941.4216;;;;
2023/06/25 04:17:27;;;;;;;6.7;4.9;;;;;;;12.63;88.85742;941.3795;;;;
2023/06/25 04:19:53;;;;;;;6.3;4.8;;;;;;;12.66;88.88574;941.342;;;;
2023/06/25 04:22:18;;;;;;;7;4.8;;;;;;;12.68;88.96973;941.3886;;;;
2023/06/25 04:24:44;;;;;;;6.9;5;;;;;;;12.85;88.11133;941.2628;;;;
2023/06/25 04:27:10;;;;;;;6.2;4.7;;;;;;;12.84;87.91504;941.2756;;;;
2023/06/25 04:29:36;;;;;;;5.1;4.4;;;;;;;12.81;88.2168;941.2255;;;;
2023/06/25 04:32:01;;;;;;;5.1;4.2;;;;;;;12.88;88.12695;941.2509;;;;
2023/06/25 04:34:28;;;;;;;5.7;4.9;;;;;;;12.91;87.74414;941.2399;;;;
2023/06/25 04:36:53;;;;;;;5.9;4.7;;;;;;;12.89;88.05957;941.2191;;;;
2023/06/25 04:39:18;;;;;;;6.6;4.7;;;;;;;12.99;87.65527;941.2379;;;;
2023/06/25 04:41:43;;;;;;;5.8;4.7;;;;;;;12.92;87.5293;941.2536;;;;
2023/06/25 04:44:10;;;;;;;5.4;4.8;;;;;;;12.92;87.77051;941.3144;;;;
2023/06/25 04:46:35;;;;;;;6.4;4.9;;;;;;;12.72;88.50879;941.2897;;;;
2023/06/25 04:49:02;;;;;;;5.5;4.9;;;;;;;12.7;88.97559;941.3112;;;;
2023/06/25 04:51:27;;;;;;;7.5;4.7;;;;;;;12.64;89.25098;941.3148;;;;
2023/06/25 04:53:53;;;;;;;6.7;4.9;;;;;;;12.77;88.88672;941.262;;;;
2023/06/25 04:56:19;;;;;;;6.1;4.8;;;;;;;12.9;88.30469;941.2775;;;;
2023/06/25 04:58:44;;;;;;;5.3;4.5;;;;;;;12.95;88.04004;941.2481;;;;
2023/06/25 05:01:09;;;;;;;6;5;;;;;;;12.99;88.08203;941.2515;;;;
2023/06/25 05:03:37;;;;;;;5.5;4.8;;;;;;;13.42;88.45508;941.248;;;;
2023/06/25 05:06:03;;;;;;;5.1;4;;;;;;;14.26;84.37793;941.1697;;;;
2023/06/25 05:08:28;;;;;;;5.2;4.3;;;;;;;15.8;76.38867;941.1597;;;;
2023/06/25 05:10:53;;;;;;;5.5;3.7;;;;;;;16.69;72.74609;941.1859;;;;
2023/06/25 05:13:19;;;;;;;4.7;3.7;;;;;;;17.58;68.84473;941.1353;;;;
2023/06/25 05:15:44;;;;;;;4.5;3.7;;;;;;;17.68;67.76855;941.1418;;;;
2023/06/25 05:18:11;;;;;;;3.9;3.4;;;;;;;18.14;66.49121;941.1094;;;;
2023/06/25 05:20:38;;;;;;;4;3.1;;;;;;;18.68;64.17676;941.0945;;;;
2023/06/25 05:23:02;;;;;;;5;3.7;;;;;;;19.65;60.57715;941.0899;;;;
2023/06/25 05:25:27;;;;;;;3.8;3.4;;;;;;;19.79;59.97559;941.087;;;;
2023/06/25 05:27:55;;;;;;;5.6;3.4;;;;;;;20.46;58.7832;941.0399;;;;
2023/06/25 05:30:20;;;;;;;3.9;3.1;;;;;;;20.78;56.40723;941.0136;;;;
2023/06/25 05:32:46;;;;;;;4.6;3.8;;;;;;;20.94;56.68359;941.0577;;;;
2023/06/25 05:35:11;;;;;;;5.7;3.4;;;;;;;21.13;55.17578;941.0017;;;;
2023/06/25 05:37:38;;;;;;;3.4;3;;;;;;;20.94;55.09375;941.0641;;;;
2023/06/25 05:40:03;;;;;;;5.9;3.1;;;;;;;21.19;55.45215;940.95;;;;
2023/06/25 05:42:29;;;;;;;5.2;3.3;;;;;;;22.32;52.54395;940.9799;;;;
2023/06/25 05:44:53;;;;;;;4;3.2;;;;;;;22.83;50.47852;940.985;;;;
2023/06/25 05:47:18;;;;;;;4.1;2.8;;;;;;;22.24;50.61133;940.9858;;;;
2023/06/25 05:49:45;;;;;;;4.7;3.2;;;;;;;22.22;49.87207;940.8805;;;;
2023/06/25 05:52:10;;;;;;;4.9;3.5;;;;;;;22.63;49.22363;940.909;;;;
2023/06/25 05:54:36;;;;;;;4.4;3.2;;;;;;;22.66;51.55176;940.9037;;;;
2023/06/25 05:57:01;;;;;;;3.9;3.1;;;;;;;23.8;47.71777;940.9445;;;;
2023/06/25 05:59:28;;;;;;;4.1;2.9;;;;;;;24.85;45.61328;940.9302;;;;
2023/06/25 06:01:53;;;;;;;3.4;2.6;;;;;;;24.91;44.14453;940.9302;;;;
2023/06/25 06:04:18;;;;;;;3.5;2.8;;;;;;;24.57;45.17285;940.9133;;;;
2023/06/25 06:06:46;;;;;;;4.3;2.9;;;;;;;25.47;43.72754;940.8577;;;;
2023/06/25 06:09:11;;;;;;;2.8;2.5;;;;;;;25.61;43.22168;940.7649;;;;
2023/06/25 06:11:39;;;;;;;3.1;2.8;;;;;;;25.8;43.16895;940.837;;;;
2023/06/25 06:14:05;;;;;;;3.2;2.7;;;;;;;25.79;43.64063;940.7983;;;;
2023/06/25 06:16:32;;;;;;;3.4;2.7;;;;;;;26.21;41.77734;940.7065;;;;
2023/06/25 06:18:57;;;;;;;3.6;3;;;;;;;25.87;42.65527;940.6741;;;;
2023/06/25 06:21:22;;;;;;;3.1;2.8;;;;;;;25.9;42.1377;940.6027;;;;
2023/06/25 06:23:48;;;;;;;3.4;3;;;;;;;26.04;41.96191;940.6747;;;;
2023/06/25 06:26:17;;;;;;;4;2.7;;;;;;;26.19;42.28418;940.6339;;;;
2023/06/25 06:28:42;;;;;;;3.1;2.6;;;;;;;27.08;41.15918;940.571;;;;
2023/06/25 06:31:09;;;;;;;3.5;2.9;;;;;;;27.87;38.19043;940.5919;;;;
2023/06/25 06:33:34;;;;;;;4;3.1;;;;;;;26.94;41.73828;940.5204;;;;
2023/06/25 06:36:01;;;;;;;3.2;2.6;;;;;;;27.23;38.82422;940.5317;;;;
2023/06/25 06:38:26;;;;;;;3;2.7;;;;;;;27.47;39.94824;940.4364;;;;
2023/06/25 06:40:51;;;;;;;3.3;3;;;;;;;28.27;36.5957;940.443;;;;
2023/06/25 06:43:16;;;;;;;3.6;3;;;;;;;27.65;39.79883;940.3428;;;;
2023/06/25 06:45:42;;;;;;;3.6;2.9;;;;;;;28.7;38.13086;940.3452;;;;
2023/06/25 06:48:07;;;;;;;3.6;3.1;;;;;;;29.87;35.56934;940.3337;;;;
2023/06/25 06:50:33;;;;;;;3.4;3;;;;;;;29.74;34.62891;940.3042;;;;
2023/06/25 06:52:58;;;;;;;2.8;2.6;;;;;;;30.69;33.10059;940.2918;;;;
2023/06/25 06:55:25;;;;;;;3.1;2.8;;;;;;;30.69;35.45508;940.3116;;;;
2023/06/25 06:57:50;;;;;;;3.3;2.9;;;;;;;31.12;32.39063;940.2842;;;;
2023/06/25 07:00:18;;;;;;;3;2.7;;;;;;;30.2;32.93359;940.2739;;;;
2023/06/25 07:02:42;;;;;;;3.1;2.6;;;;;;;30.53;34.48633;940.2147;;;;
2023/06/25 07:05:11;;;;;;;2.7;2.5;;;;;;;30.19;33.12402;940.2115;;;;
2023/06/25 07:07:36;;;;;;;4.2;3;;;;;;;31.17;33.43555;940.1428;;;;
2023/06/25 07:10:02;;;;;;;3.2;2.7;;;;;;;28.07;36.49707;940.1412;;;;
2023/06/25 07:12:27;;;;;;;3.5;2.6;;;;;;;27.66;37.0332;940.1206;;;;
2023/06/25 07:14:52;;;;;;;4;2.8;;;;;;;29.76;34.97656;940.0327;;;;
2023/06/25 07:17:17;;;;;;;4;2.8;;;;;;;31.49;31.89063;940.0253;;;;
2023/06/25 07:19:45;;;;;;;3.6;2.7;;;;;;;29.61;33.76074;939.9568;;;;
2023/06/25 07:22:10;;;;;;;3.2;2.9;;;;;;;28.28;36.96582;939.9966;;;;
2023/06/25 07:24:38;;;;;;;3.5;2.6;;;;;;;29.08;35.37598;939.9489;;;;
2023/06/25 07:27:03;;;;;;;3.1;2.8;;;;;;;30.18;34.05371;939.899;;;;
2023/06/25 07:29:29;;;;;;;10.4;4.4;;;;;;;31.4;32.58984;939.9052;;;;
2023/06/25 07:31:54;;;;;;;10.1;4.2;;;;;;;32.35;30.84766;939.9355;;;;
2023/06/25 07:34:20;;;;;;;3.4;2.7;;;;;;;32.38;31.55664;939.8997;;;;
2023/06/25 07:36:45;;;;;;;4.8;3.4;;;;;;;33.34;29.96484;939.8752;;;;
2023/06/25 07:39:12;;;;;;;3.5;2.9;;;;;;;34.59;28.78223;939.8787;;;;
2023/06/25 07:41:37;;;;;;;2.7;2.5;;;;;;;34.94;26.25879;939.8856;;;;
2023/06/25 07:44:03;;;;;;;4.1;3;;;;;;;33.92;28.95605;939.9302;;;;
2023/06/25 07:46:28;;;;;;;4;2.8;;;;;;;34.14;29.09082;939.8375;;;;
2023/06/25 07:48:55;;;;;;;2.4;2.2;;;;;;;31.64;32.32031;939.8183;;;;
2023/06/25 07:51:19;;;;;;;3;2.7;;;;;;;33.62;30.92188;939.8158;;;;
2023/06/25 07:53:44;;;;;;;2.7;2.5;;;;;;;33.66;26.83398;939.7974;;;;
2023/06/25 07:56:10;;;;;;;2.7;2.5;;;;;;;33.63;27.31445;939.7747;;;;
2023/06/25 07:58:36;;;;;;;4.4;2.8;;;;;;;33.24;28.58887;939.7277;;;;
2023/06/25 08:01:01;;;;;;;2.9;2.6;;;;;;;33.91;28.64258;939.6923;;;;
2023/06/25 08:03:29;;;;;;;3;2.7;;;;;;;34.02;27.81836;939.6394;;;;
2023/06/25 08:05:54;;;;;;;3.3;3;;;;;;;35.21;27.92773;939.6161;;;;
2023/06/25 08:08:19;;;;;;;3;2.7;;;;;;;33.85;27.53125;939.6021;;;;
2023/06/25 08:10:45;;;;;;;2.8;2.6;;;;;;;33.53;27.89746;939.5527;;;;
2023/06/25 08:13:12;;;;;;;2.5;2.3;;;;;;;35.35;26.02832;939.5424;;;;
2023/06/25 08:15:37;;;;;;;3.4;2.9;;;;;;;35.5;25.63867;939.5435;;;;
2023/06/25 08:18:03;;;;;;;2.9;2.5;;;;;;;34.49;28.60645;939.4931;;;;
2023/06/25 08:20:30;;;;;;;2.7;2.5;;;;;;;35.1;27.07617;939.5134;;;;
2023/06/25 08:22:57;;;;;;;3.2;2.9;;;;;;;35.41;28.13281;939.5692;;;;
2023/06/25 08:25:23;;;;;;;3.4;2.9;;;;;;;36.12;26.99219;939.5664;;;;
2023/06/25 08:27:50;;;;;;;2.9;2.6;;;;;;;35.11;27.61914;939.5566;;;;
2023/06/25 08:30:16;;;;;;;3.3;3;;;;;;;32.43;29.90527;939.5925;;;;
2023/06/25 08:32:42;;;;;;;3.6;2.6;;;;;;;34.06;31.6377;939.5314;;;;
2023/06/25 08:35:07;;;;;;;3.4;2.8;;;;;;;31.77;32.92871;939.4913;;;;
2023/06/25 08:37:35;;;;;;;3.2;2.9;;;;;;;31.78;35.94727;939.4821;;;;
2023/06/25 08:40:00;;;;;;;3.2;2.9;;;;;;;31.67;35.97461;939.5773;;;;
2023/06/25 08:42:25;;;;;;;3.3;3;;;;;;;30.44;37.50195;939.5435;;;;
2023/06/25 08:44:50;;;;;;;2.6;2.4;;;;;;;30.41;35.14551;939.4925;;;;
2023/06/25 08:47:18;;;;;;;2.6;2.4;;;;;;;31.59;33.02246;939.5641;;;;
2023/06/25 08:49:43;;;;;;;3;2.5;;;;;;;31.63;33.3125;939.5524;;;;
2023/06/25 08:52:08;;;;;;;3.7;2.8;;;;;;;31.08;32.49512;939.5183;;;;
2023/06/25 08:54:34;;;;;;;3.5;3;;;;;;;30.78;32.62891;939.5157;;;;
2023/06/25 08:56:59;;;;;;;2.9;2.6;;;;;;;30.38;35.39355;939.5399;;;;
2023/06/25 08:59:25;;;;;;;3.1;2.8;;;;;;;31.88;31.59375;939.5717;;;;
2023/06/25 09:01:50;;;;;;;2.9;2.6;;;;;;;32.44;32.47266;939.606;;;;
2023/06/25 09:04:18;;;;;;;3;2.7;;;;;;;32.91;30.38086;939.5856;;;;
2023/06/25 09:06:43;;;;;;;3;2.7;;;;;;;33.67;28.27832;939.562;;;;
2023/06/25 09:09:08;;;;;;;3;2.7;;;;;;;33.93;28.77637;939.5099;;;;
2023/06/25 09:11:33;;;;;;;3.1;2.8;;;;;;;34.27;28.29199;939.5193;;;;
2023/06/25 09:13:58;;;;;;;4.1;3.1;;;;;;;32.47;34.41797;939.5377;;;;
2023/06/25 09:16:26;;;;;;;3.2;2.9;;;;;;;31;37.47559;939.5225;;;;
2023/06/25 09:18:49;;;;;;;3;2.7;;;;;;;28.91;38.67285;939.5643;;;;
2023/06/25 09:21:14;;;;;;;3.3;3;;;;;;;30.49;35.52344;939.5226;;;;
2023/06/25 09:23:39;;;;;;;3.5;3.1;;;;;;;31.45;34.25684;939.5128;;;;
2023/06/25 09:26:09;;;;;;;3.7;2.9;;;;;;;30.57;36.91504;939.4511;;;;
2023/06/25 09:28:32;;;;;;;3.5;3;;;;;;;30.02;38.4209;939.4949;;;;
2023/06/25 09:30:58;;;;;;;3.8;3.2;;;;;;;29.72;37.8584;939.4178;;;;
2023/06/25 09:33:23;;;;;;;6.8;3.3;;;;;;;29.61;40.13867;939.389;;;;
2023/06/25 09:35:48;;;;;;;3.4;2.9;;;;;;;30.57;36.7832;939.4216;;;;
2023/06/25 09:38:13;;;;;;;3.1;2.8;;;;;;;30.73;35.90039;939.3675;;;;
2023/06/25 09:40:38;;;;;;;4;3;;;;;;;29.91;36.71875;939.3506;;;;
2023/06/25 09:43:06;;;;;;;3.3;3;;;;;;;29.28;40.13281;939.3452;;;;
2023/06/25 09:45:28;;;;;;;3.5;3.1;;;;;;;28.59;39.71387;939.3198;;;;
2023/06/25 09:47:54;;;;;;;3.5;3.1;;;;;;;27.37;42.12207;939.2997;;;;
2023/06/25 09:50:19;;;;;;;3.4;3.1;;;;;;;27.33;42.78223;939.3137;;;;
2023/06/25 09:52:44;;;;;;;4.2;3.3;;;;;;;27.85;42.13184;939.2358;;;;
2023/06/25 09:55:10;;;;;;;3.6;2.8;;;;;;;28.51;38.70898;939.2023;;;;
2023/06/25 09:57:34;;;;;;;4.4;3.3;;;;;;;28.31;41.67578;939.2503;;;;
2023/06/25 10:00:00;;;;;;;4;3.4;;;;;;;27.9;43.03809;939.1986;;;;
2023/06/25 10:02:25;;;;;;;3.9;3.5;;;;;;;27.88;41.97949;939.2244;;;;
2023/06/25 10:04:52;;;;;;;4.1;3.3;;;;;;;27.49;44.51855;939.1345;;;;
2023/06/25 10:07:17;;;;;;;4.1;3.5;;;;;;;27.92;43.68164;939.1526;;;;
2023/06/25 10:09:43;;;;;;;3.8;3.2;;;;;;;27.72;44.50586;939.1418;;;;
2023/06/25 10:12:08;;;;;;;4.3;3.4;;;;;;;27.17;44.93652;939.0696;;;;
2023/06/25 10:14:33;;;;;;;5;3.4;;;;;;;26.77;46.05664;939.0622;;;;
2023/06/25 10:17:00;;;;;;;4.7;3.6;;;;;;;26.76;46.83887;939.0772;;;;
2023/06/25 10:19:25;;;;;;;5.6;3.4;;;;;;;26.98;45.33301;939.1029;;;;
2023/06/25 10:21:50;;;;;;;5.7;3.3;;;;;;;27.45;44.44238;939.0966;;;;
2023/06/25 10:24:15;;;;;;;5.3;3.5;;;;;;;27.45;47.83594;939.014;;;;
2023/06/25 10:26:40;;;;;;;4;3.4;;;;;;;27.13;46.30859;938.9933;;;;
2023/06/25 10:29:08;;;;;;;4.6;3.6;;;;;;;27.6;46.03613;938.9975;;;;
2023/06/25 10:31:33;;;;;;;5.8;3.3;;;;;;;27.85;45.48047;938.9694;;;;
2023/06/25 10:33:58;;;;;;;11.7;7.1;;;;;;;28.14;42.9668;939.0262;;;;
2023/06/25 10:36:23;;;;;;;6.2;4.4;;;;;;;28.26;43.48926;938.8638;;;;
2023/06/25 10:38:48;;;;;;;6.9;5;;;;;;;28.17;42.55469;938.9252;;;;
2023/06/25 10:41:14;;;;;;;5;3.8;;;;;;;28.03;43.08691;938.9881;;;;
2023/06/25 10:43:39;;;;;;;3.9;3.2;;;;;;;27.91;42.37402;938.963;;;;
2023/06/25 10:46:06;;;;;;;4.4;3.7;;;;;;;27.98;42.17871;938.9269;;;;
2023/06/25 10:48:31;;;;;;;5.8;4.1;;;;;;;27.58;43.4834;938.9395;;;;
2023/06/25 10:50:57;;;;;;;6.7;4.1;;;;;;;27.53;42.86035;938.8713;;;;
2023/06/25 10:53:22;;;;;;;5.2;4.1;;;;;;;27.56;43.62402;938.9128;;;;
2023/06/25 10:55:50;;;;;;;5.2;3.6;;;;;;;27.63;42.5498;938.8024;;;;
2023/06/25 10:58:15;;;;;;;4.9;3.9;;;;;;;27.5;41.57617;938.8287;;;;
2023/06/25 11:00:41;;;;;;;4.3;3.5;;;;;;;27.64;42.83496;938.7997;;;;
2023/06/25 11:03:06;;;;;;;4.8;3.8;;;;;;;27.99;41.11133;938.7822;;;;
2023/06/25 11:05:32;;;;;;;5.6;4.3;;;;;;;28.21;40.44238;938.7723;;;;
2023/06/25 11:07:57;;;;;;;4.6;3.7;;;;;;;28.28;38.61816;938.7023;;;;
2023/06/25 11:10:25;;;;;;;5;3.9;;;;;;;28.34;39.53809;938.7278;;;;
2023/06/25 11:12:49;;;;;;;5.3;4.1;;;;;;;28.5;36.79395;938.6667;;;;
2023/06/25 11:15:17;;;;;;;4.9;3.8;;;;;;;28.55;37.21289;938.6371;;;;
2023/06/25 11:17:42;;;;;;;5.1;4.1;;;;;;;28.3;41.20996;938.6671;;;;
2023/06/25 11:20:13;;;;;;;6.4;4.5;;;;;;;28.42;38.03516;938.5867;;;;
2023/06/25 11:22:41;;;;;;;4.5;3.7;;;;;;;28.02;41.71973;938.5564;;;;
2023/06/25 11:25:06;;;;;;;5.4;4.1;;;;;;;28.38;38.01953;938.5779;;;;
2023/06/25 11:27:33;;;;;;;5.3;4;;;;;;;28.55;38.42773;938.508;;;;
2023/06/25 11:29:57;;;;;;;5.8;3.9;;;;;;;28.26;39.29297;938.4833;;;;
2023/06/25 11:32:23;;;;;;;5.5;4.1;;;;;;;27.85;40.55273;938.5129;;;;
2023/06/25 11:34:47;;;;;;;5.9;4.1;;;;;;;27.91;41.0918;938.4807;;;;
2023/06/25 11:37:13;;;;;;;5.4;4.3;;;;;;;28;42.75098;938.4226;;;;
2023/06/25 11:39:39;;;;;;;5;3.8;;;;;;;28.11;39.83887;938.3994;;;;
2023/06/25 11:42:04;;;;;;;5.2;4.4;;;;;;;28.08;42.59277;938.3985;;;;
2023/06/25 11:44:29;;;;;;;5.5;4.1;;;;;;;28.14;39.73438;938.3605;;;;
2023/06/25 11:46:54;;;;;;;5.8;4.2;;;;;;;28.34;38.84863;938.3239;;;;
2023/06/25 11:49:24;;;;;;;5.2;4.2;;;;;;;28.31;42.23438;938.3569;;;;
2023/06/25 11:51:47;;;;;;;6.7;4.2;;;;;;;28.41;40.53125;938.3353;;;;
2023/06/25 11:54:13;;;;;;;5.5;4.1;;;;;;;28.78;39.96875;938.3308;;;;
2023/06/25 11:56:38;;;;;;;5.8;4.4;;;;;;;28.99;36.44141;938.2877;;;;
2023/06/25 11:59:03;;;;;;;4.8;3.9;;;;;;;28.87;36.64551;938.3198;;;;
2023/06/25 12:01:29;;;;;;;6.5;4.5;;;;;;;28.69;38.64063;938.3364;;;;
2023/06/25 12:03:56;;;;;;;6.3;4.4;;;;;;;28.53;38.4375;938.343;;;;
2023/06/25 12:06:21;;;;;;;4.6;4;;;;;;;28.67;41.92188;938.3324;;;;
2023/06/25 12:08:49;;;;;;;5.5;4.1;;;;;;;28.55;39.35352;938.3273;;;;
2023/06/25 12:11:14;;;;;;;5.5;4.5;;;;;;;28.65;38.10254;938.3372;;;;
2023/06/25 12:13:41;;;;;;;6.4;4.2;;;;;;;28.9;37.69531;938.2875;;;;
2023/06/25 12:16:06;;;;;;;4.6;3.8;;;;;;;29.08;35.74512;938.2495;;;;
2023/06/25 12:18:31;;;;;;;5.1;4.1;;;;;;;28.99;37.51172;938.2067;;;;
2023/06/25 12:20:56;;;;;;;5.4;4.6;;;;;;;28.77;38.17188;938.1711;;;;
2023/06/25 12:23:25;;;;;;;6.3;4.3;;;;;;;28;39.40137;938.1498;;;;
2023/06/25 12:25:50;;;;;;;6.4;4.6;;;;;;;27.95;38.76758;938.1758;;;;
2023/06/25 12:28:16;;;;;;;5.1;4.1;;;;;;;28.2;36.47168;938.181;;;;
2023/06/25 12:30:41;;;;;;;6.6;4.6;;;;;;;28.5;36.84082;938.1964;;;;
2023/06/25 12:33:09;;;;;;;5.1;4.3;;;;;;;28.41;36.38184;938.145;;;;
2023/06/25 12:35:34;;;;;;;5.4;4.2;;;;;;;28.66;38.78125;938.1055;;;;
2023/06/25 12:37:59;;;;;;;5.3;4.2;;;;;;;28.76;37.55176;938.1523;;;;
2023/06/25 12:40:24;;;;;;;6.4;4.6;;;;;;;28.91;35.01758;938.1183;;;;
2023/06/25 12:42:50;;;;;;;7.9;4.3;;;;;;;28.63;38.2666;938.0783;;;;
2023/06/25 12:45:17;;;;;;;6.5;4.6;;;;;;;28.38;36.90332;938.1124;;;;
2023/06/25 12:47:43;;;;;;;4.8;4.1;;;;;;;28.55;36.62012;938.1458;;;;
2023/06/25 12:50:10;;;;;;;5.8;4.7;;;;;;;28.49;38.48145;938.1298;;;;
2023/06/25 12:52:36;;;;;;;5.1;4.4;;;;;;;28.12;40.61133;938.0539;;;;
2023/06/25 12:55:04;;;;;;;5.5;3.9;;;;;;;28.05;41.73438;938.0842;;;;
2023/06/25 12:57:26;;;;;;;5.3;4.2;;;;;;;28.26;39.22168;938.0417;;;;
2023/06/25 12:59:51;;;;;;;4.9;4.4;;;;;;;28.17;39.14258;938.0142;;;;
2023/06/25 13:02:17;;;;;;;6;4.7;;;;;;;28.15;39.91504;938.0469;;;;
2023/06/25 13:04:44;;;;;;;5.5;4.4;;;;;;;28.37;37.93555;938.0337;;;;
2023/06/25 13:07:09;;;;;;;6.6;4.6;;;;;;;28.57;37.40527;938.0344;;;;
2023/06/25 13:09:35;;;;;;;6.3;4.8;;;;;;;28.59;36.14648;938.045;;;;
2023/06/25 13:12:00;;;;;;;5;4.4;;;;;;;28.7;36.0127;938.0444;;;;
2023/06/25 13:14:26;;;;;;;5.4;4.4;;;;;;;28.73;36.2168;937.9568;;;;
2023/06/25 13:16:52;;;;;;;5.6;4.6;;;;;;;28.56;38.07031;937.9579;;;;
2023/06/25 13:19:17;;;;;;;8.2;4.4;;;;;;;28.38;36.68848;937.9749;;;;
2023/06/25 13:21:42;;;;;;;5.3;4.2;;;;;;;28.33;38.38477;937.9091;;;;
2023/06/25 13:24:10;;;;;;;5.9;4.3;;;;;;;28.39;38.19922;937.8837;;;;
2023/06/25 13:26:35;;;;;;;5.5;4.2;;;;;;;28.17;37.46777;937.9319;;;;
2023/06/25 13:29:03;;;;;;;6.5;4.5;;;;;;;28.33;36.20898;937.9363;;;;
2023/06/25 13:31:28;;;;;;;7;4.5;;;;;;;28.43;35.47949;937.9228;;;;
2023/06/25 13:33:53;;;;;;;4.9;4.3;;;;;;;28.54;35.12012;937.9055;;;;
2023/06/25 13:36:19;;;;;;;6.1;4.9;;;;;;;28.56;35.96582;937.8961;;;;
2023/06/25 13:38:44;;;;;;;4.8;4.3;;;;;;;28.29;38.86914;937.8794;;;;
2023/06/25 13:41:09;;;;;;;6;4.5;;;;;;;28.33;37.08984;937.8196;;;;
2023/06/25 13:43:36;;;;;;;6.8;4.4;;;;;;;28.36;37.95898;937.8747;;;;
2023/06/25 13:46:01;;;;;;;5.5;4.7;;;;;;;28.49;35.88867;937.9365;;;;
2023/06/25 13:48:28;;;;;;;6.2;4.7;;;;;;;28.47;36.56445;937.884;;;;
2023/06/25 13:50:52;;;;;;;6;4.3;;;;;;;28.36;36.71094;937.9288;;;;
2023/06/25 13:53:19;;;;;;;6.9;5.1;;;;;;;28.19;38.65723;937.8996;;;;
2023/06/25 13:55:43;;;;;;;5.2;4.5;;;;;;;28.34;36.37598;937.8383;;;;
2023/06/25 13:58:10;;;;;;;5.4;4.2;;;;;;;28.4;36.70215;937.8287;;;;
2023/06/25 14:00:35;;;;;;;5.3;4.5;;;;;;;28.44;36.37207;937.8354;;;;
2023/06/25 14:03:05;;;;;;;5.8;4.6;;;;;;;28.48;35.51953;937.8477;;;;
2023/06/25 14:05:26;;;;;;;6.8;4.2;;;;;;;28.38;35.03516;937.8597;;;;
2023/06/25 14:07:52;;;;;;;4.8;4.1;;;;;;;28.39;35.28613;937.813;;;;
2023/06/25 14:10:17;;;;;;;6.3;4.8;;;;;;;28.42;36.33398;937.7842;;;;
2023/06/25 14:12:43;;;;;;;5.4;4.5;;;;;;;28.35;36.31738;937.7997;;;;
2023/06/25 14:15:08;;;;;;;6.7;4.7;;;;;;;28.43;34.81348;937.7191;;;;
2023/06/25 14:17:37;;;;;;;5.1;4.3;;;;;;;28.56;35.13379;937.7495;;;;
2023/06/25 14:20:03;;;;;;;5.8;4.6;;;;;;;28.33;36.76855;937.718;;;;